KOGB/OGB METAR and TAF weather

Enter ICAO airport designator
Station Type Date Time Source
KOGB METAR 2019/02/16 17:53 UTC NOAA

KOGB 161753Z AUTO 26014KT 10SM BKN020 BKN024 OVC080 21/15 A2972 RMK AO2 SLP061 T02060150 10206 20128 58014


Station Type Date Time Source
KOGB Decoded METAR 2019/02/16 17:53 UTC NOAA

ORANGEBURG MUNICIPAL AIRPORT, SC, United States (KOGB) 33-28N 080-51W 59M
Feb 16, 2019 - 12:53 PM EST / 2019.02.16 1753 UTC
Wind: from the W (260 degrees) at 16 MPH (14 KT):0
Visibility: 10 mile(s):0
Sky conditions: overcast
Temperature: 69.1 F (20.6 C)
Dew Point: 59.0 F (15.0 C)
Relative Humidity: 70%
Pressure (altimeter): 29.72 in. Hg (1006 hPa)
Pressure tendency: 0.04 inches (1.4 hPa) lower than three hours ago
ob: KOGB 161753Z AUTO 26014KT 10SM BKN020 BKN024 OVC080 21/15 A2972 RMK AO2 SLP061 T02060150 10206 20128 58014
cycle: 18

Station Type Date Time Source
KOGB TAF 2019/02/16 18:42 UTC NOAA

TAF KOGB 161740Z 1618/1718 25010G16KT P6SM SCT008 OVC015
TEMPO 1618/1621 SCT012 BKN045 BKN100
FM162100 29008KT P6SM SCT008 OVC015
FM170100 04007KT P6SM OVC008
FM171700 08005KT 5SM -SHRA BR OVC007


Example: see airport list